sensor_id;sensor_type;location;lat;lon;timestamp;pressure;altitude;pressure_sealevel;temperature;humidity
56876;BME280;42622;49.972;8.452;2022-10-17T00:00:56;101050.69;;;11.34;100.00
56876;BME280;42622;49.972;8.452;2022-10-17T00:03:22;101059.69;;;11.31;100.00
56876;BME280;42622;49.972;8.452;2022-10-17T00:05:48;101057.25;;;11.28;100.00
56876;BME280;42622;49.972;8.452;2022-10-17T00:08:16;101061.75;;;11.26;100.00
56876;BME280;42622;49.972;8.452;2022-10-17T00:10:43;101067.41;;;11.20;100.00
56876;BME280;42622;49.972;8.452;2022-10-17T00:13:11;101062.50;;;11.14;100.00
56876;BME280;42622;49.972;8.452;2022-10-17T00:15:37;101072.44;;;11.10;100.00
56876;BME280;42622;49.972;8.452;2022-10-17T00:18:09;101070.03;;;11.06;100.00
56876;BME280;42622;49.972;8.452;2022-10-17T00:20:38;101073.75;;;11.03;100.00
56876;BME280;42622;49.972;8.452;2022-10-17T00:23:04;101070.50;;;10.98;100.00
56876;BME280;42622;49.972;8.452;2022-10-17T00:25:32;101067.09;;;10.96;100.00
56876;BME280;42622;49.972;8.452;2022-10-17T00:27:58;101068.13;;;10.93;100.00
56876;BME280;42622;49.972;8.452;2022-10-17T00:30:24;101071.81;;;10.91;100.00
56876;BME280;42622;49.972;8.452;2022-10-17T00:32:52;101071.13;;;10.87;100.00
56876;BME280;42622;49.972;8.452;2022-10-17T00:35:19;101082.38;;;10.91;100.00
56876;BME280;42622;49.972;8.452;2022-10-17T00:37:44;101078.88;;;10.90;100.00
56876;BME280;42622;49.972;8.452;2022-10-17T00:40:10;101077.38;;;10.86;100.00
56876;BME280;42622;49.972;8.452;2022-10-17T00:42:37;101091.53;;;10.85;100.00
56876;BME280;42622;49.972;8.452;2022-10-17T00:47:36;101088.41;;;10.79;100.00
56876;BME280;42622;49.972;8.452;2022-10-17T00:50:06;101095.56;;;10.76;100.00
56876;BME280;42622;49.972;8.452;2022-10-17T00:52:33;101095.38;;;10.80;100.00
56876;BME280;42622;49.972;8.452;2022-10-17T00:55:20;101098.31;;;10.75;100.00
56876;BME280;42622;49.972;8.452;2022-10-17T00:57:49;101087.91;;;10.72;100.00
56876;BME280;42622;49.972;8.452;2022-10-17T01:00:17;101089.03;;;10.68;100.00
56876;BME280;42622;49.972;8.452;2022-10-17T01:02:43;101095.34;;;10.65;100.00
56876;BME280;42622;49.972;8.452;2022-10-17T01:05:10;101089.38;;;10.62;100.00
56876;BME280;42622;49.972;8.452;2022-10-17T01:07:40;101092.00;;;10.62;100.00
56876;BME280;42622;49.972;8.452;2022-10-17T01:10:07;101088.78;;;10.57;100.00
56876;BME280;42622;49.972;8.452;2022-10-17T01:13:15;101087.25;;;10.52;100.00
56876;BME280;42622;49.972;8.452;2022-10-17T01:22:27;101081.66;;;10.43;100.00
56876;BME280;42622;49.972;8.452;2022-10-17T01:31:31;101083.00;;;10.34;100.00
56876;BME280;42622;49.972;8.452;2022-10-17T01:34:17;101089.13;;;10.35;100.00
56876;BME280;42622;49.972;8.452;2022-10-17T01:39:41;101087.72;;;10.29;100.00
56876;BME280;42622;49.972;8.452;2022-10-17T01:42:44;101073.81;;;10.25;100.00
56876;BME280;42622;49.972;8.452;2022-10-17T01:45:36;101073.94;;;10.22;100.00
56876;BME280;42622;49.972;8.452;2022-10-17T01:48:16;101090.81;;;10.20;100.00
56876;BME280;42622;49.972;8.452;2022-10-17T01:50:58;101086.53;;;10.17;100.00
56876;BME280;42622;49.972;8.452;2022-10-17T01:53:34;101078.03;;;10.12;100.00
56876;BME280;42622;49.972;8.452;2022-10-17T01:56:10;101083.50;;;10.09;100.00
56876;BME280;42622;49.972;8.452;2022-10-17T01:58:52;101082.63;;;10.09;100.00
56876;BME280;42622;49.972;8.452;2022-10-17T02:01:25;101080.78;;;10.11;100.00
56876;BME280;42622;49.972;8.452;2022-10-17T02:03:58;101080.16;;;10.05;100.00
56876;BME280;42622;49.972;8.452;2022-10-17T02:06:25;101083.75;;;10.04;100.00
56876;BME280;42622;49.972;8.452;2022-10-17T02:08:52;101082.13;;;10.02;100.00
56876;BME280;42622;49.972;8.452;2022-10-17T02:11:23;101083.97;;;10.00;100.00
56876;BME280;42622;49.972;8.452;2022-10-17T02:14:31;101078.78;;;9.98;100.00
56876;BME280;42622;49.972;8.452;2022-10-17T02:20:37;101079.28;;;9.89;100.00
56876;BME280;42622;49.972;8.452;2022-10-17T02:23:26;101081.06;;;9.89;100.00
56876;BME280;42622;49.972;8.452;2022-10-17T02:26:16;101079.28;;;9.89;100.00
56876;BME280;42622;49.972;8.452;2022-10-17T02:34:31;101080.56;;;9.82;100.00
56876;BME280;42622;49.972;8.452;2022-10-17T02:37:05;101084.25;;;9.79;100.00
56876;BME280;42622;49.972;8.452;2022-10-17T02:39:36;101083.44;;;9.77;100.00
56876;BME280;42622;49.972;8.452;2022-10-17T02:42:11;101082.78;;;9.74;100.00
56876;BME280;42622;49.972;8.452;2022-10-17T02:44:43;101084.66;;;9.72;100.00
56876;BME280;42622;49.972;8.452;2022-10-17T02:47:49;101087.28;;;9.72;100.00
56876;BME280;42622;49.972;8.452;2022-10-17T02:50:30;101096.75;;;9.76;100.00
56876;BME280;42622;49.972;8.452;2022-10-17T02:53:09;101094.19;;;9.74;100.00
56876;BME280;42622;49.972;8.452;2022-10-17T02:55:49;101095.91;;;9.75;100.00
56876;BME280;42622;49.972;8.452;2022-10-17T02:58:30;101087.09;;;9.75;100.00
56876;BME280;42622;49.972;8.452;2022-10-17T03:00:58;101086.03;;;9.79;100.00
56876;BME280;42622;49.972;8.452;2022-10-17T03:03:30;101090.38;;;9.80;100.00
56876;BME280;42622;49.972;8.452;2022-10-17T03:05:59;101094.69;;;9.81;100.00
56876;BME280;42622;49.972;8.452;2022-10-17T03:08:25;101086.88;;;9.79;100.00
56876;BME280;42622;49.972;8.452;2022-10-17T03:10:51;101090.38;;;9.80;100.00
56876;BME280;42622;49.972;8.452;2022-10-17T03:13:19;101093.16;;;9.77;100.00
56876;BME280;42622;49.972;8.452;2022-10-17T03:15:46;101091.47;;;9.76;100.00
56876;BME280;42622;49.972;8.452;2022-10-17T03:18:12;101089.94;;;9.72;100.00
56876;BME280;42622;49.972;8.452;2022-10-17T03:20:38;101100.31;;;9.75;100.00
56876;BME280;42622;49.972;8.452;2022-10-17T03:23:03;101095.03;;;9.75;100.00
56876;BME280;42622;49.972;8.452;2022-10-17T03:25:31;101104.69;;;9.76;100.00
56876;BME280;42622;49.972;8.452;2022-10-17T03:27:59;101104.75;;;9.74;100.00
56876;BME280;42622;49.972;8.452;2022-10-17T03:30:27;101110.88;;;9.75;100.00
56876;BME280;42622;49.972;8.452;2022-10-17T03:32:52;101114.28;;;9.77;100.00
56876;BME280;42622;49.972;8.452;2022-10-17T03:35:21;101117.94;;;9.74;100.00
56876;BME280;42622;49.972;8.452;2022-10-17T03:37:47;101123.31;;;9.73;100.00
56876;BME280;42622;49.972;8.452;2022-10-17T03:40:13;101125.31;;;9.68;100.00
56876;BME280;42622;49.972;8.452;2022-10-17T03:42:38;101116.72;;;9.64;100.00
56876;BME280;42622;49.972;8.452;2022-10-17T03:45:05;101125.53;;;9.65;100.00
56876;BME280;42622;49.972;8.452;2022-10-17T03:47:31;101129.06;;;9.64;100.00
56876;BME280;42622;49.972;8.452;2022-10-17T03:50:07;101136.06;;;9.65;100.00
56876;BME280;42622;49.972;8.452;2022-10-17T03:52:46;101130.94;;;9.62;100.00
56876;BME280;42622;49.972;8.452;2022-10-17T03:55:13;101131.97;;;9.59;100.00
56876;BME280;42622;49.972;8.452;2022-10-17T03:57:40;101136.28;;;9.60;100.00
56876;BME280;42622;49.972;8.452;2022-10-17T04:00:06;101144.16;;;9.62;100.00
56876;BME280;42622;49.972;8.452;2022-10-17T04:02:33;101142.53;;;9.59;100.00
56876;BME280;42622;49.972;8.452;2022-10-17T04:05:00;101145.22;;;9.57;100.00
56876;BME280;42622;49.972;8.452;2022-10-17T04:07:26;101146.09;;;9.58;100.00
56876;BME280;42622;49.972;8.452;2022-10-17T04:09:52;101146.94;;;9.58;100.00
56876;BME280;42622;49.972;8.452;2022-10-17T04:12:21;101149.66;;;9.57;100.00
56876;BME280;42622;49.972;8.452;2022-10-17T04:14:47;101147.84;;;9.57;100.00
56876;BME280;42622;49.972;8.452;2022-10-17T04:17:13;101141.88;;;9.54;100.00
56876;BME280;42622;49.972;8.452;2022-10-17T04:19:39;101142.84;;;9.53;100.00
56876;BME280;42622;49.972;8.452;2022-10-17T04:22:05;101142.75;;;9.54;100.00
56876;BME280;42622;49.972;8.452;2022-10-17T04:24:32;101143.78;;;9.52;100.00
56876;BME280;42622;49.972;8.452;2022-10-17T04:26:59;101144.72;;;9.51;100.00
56876;BME280;42622;49.972;8.452;2022-10-17T04:29:25;101140.34;;;9.50;100.00
56876;BME280;42622;49.972;8.452;2022-10-17T04:31:51;101136.84;;;9.49;100.00
56876;BME280;42622;49.972;8.452;2022-10-17T04:34:18;101145.56;;;9.51;100.00
56876;BME280;42622;49.972;8.452;2022-10-17T04:36:44;101142.13;;;9.49;100.00
56876;BME280;42622;49.972;8.452;2022-10-17T04:39:11;101140.44;;;9.48;100.00
56876;BME280;42622;49.972;8.452;2022-10-17T04:41:37;101149.13;;;9.50;100.00
56876;BME280;42622;49.972;8.452;2022-10-17T04:44:02;101154.38;;;9.50;100.00
56876;BME280;42622;49.972;8.452;2022-10-17T04:46:29;101160.56;;;9.51;100.00
56876;BME280;42622;49.972;8.452;2022-10-17T04:48:54;101156.28;;;9.48;100.00
56876;BME280;42622;49.972;8.452;2022-10-17T04:51:21;101149.28;;;9.47;100.00
56876;BME280;42622;49.972;8.452;2022-10-17T04:53:47;101165.13;;;9.47;100.00
56876;BME280;42622;49.972;8.452;2022-10-17T04:56:17;101161.56;;;9.48;100.00
56876;BME280;42622;49.972;8.452;2022-10-17T04:58:45;101165.13;;;9.47;100.00
56876;BME280;42622;49.972;8.452;2022-10-17T05:01:16;101161.72;;;9.45;100.00
56876;BME280;42622;49.972;8.452;2022-10-17T05:03:44;101168.69;;;9.46;100.00
56876;BME280;42622;49.972;8.452;2022-10-17T05:06:14;101166.97;;;9.45;100.00
56876;BME280;42622;49.972;8.452;2022-10-17T05:08:40;101171.41;;;9.45;100.00
56876;BME280;42622;49.972;8.452;2022-10-17T05:11:17;101155.81;;;9.40;100.00
56876;BME280;42622;49.972;8.452;2022-10-17T05:13:43;101159.31;;;9.41;100.00
56876;BME280;42622;49.972;8.452;2022-10-17T05:16:09;101163.88;;;9.37;100.00
56876;BME280;42622;49.972;8.452;2022-10-17T05:18:35;101156.97;;;9.34;100.00
56876;BME280;42622;49.972;8.452;2022-10-17T05:21:04;101153.56;;;9.32;100.00
56876;BME280;42622;49.972;8.452;2022-10-17T05:23:30;101157.22;;;9.30;100.00
56876;BME280;42622;49.972;8.452;2022-10-17T05:25:56;101167.78;;;9.30;100.00
56876;BME280;42622;49.972;8.452;2022-10-17T05:28:23;101160.84;;;9.27;100.00
56876;BME280;42622;49.972;8.452;2022-10-17T05:30:49;101167.84;;;9.28;100.00
56876;BME280;42622;49.972;8.452;2022-10-17T05:33:15;101166.94;;;9.29;100.00
56876;BME280;42622;49.972;8.452;2022-10-17T05:35:47;101178.19;;;9.33;100.00
56876;BME280;42622;49.972;8.452;2022-10-17T05:38:13;101179.09;;;9.32;100.00
56876;BME280;42622;49.972;8.452;2022-10-17T05:40:38;101177.28;;;9.32;100.00
56876;BME280;42622;49.972;8.452;2022-10-17T05:43:04;101162.25;;;9.34;100.00
56876;BME280;42622;49.972;8.452;2022-10-17T05:45:30;101171.72;;;9.39;100.00
56876;BME280;42622;49.972;8.452;2022-10-17T05:47:56;101167.38;;;9.38;100.00
56876;BME280;42622;49.972;8.452;2022-10-17T05:50:21;101164.03;;;9.34;100.00
56876;BME280;42622;49.972;8.452;2022-10-17T05:52:53;101171.16;;;9.32;100.00
56876;BME280;42622;49.972;8.452;2022-10-17T05:55:20;101170.56;;;9.27;100.00
56876;BME280;42622;49.972;8.452;2022-10-17T05:57:47;101182.06;;;9.26;100.00
56876;BME280;42622;49.972;8.452;2022-10-17T06:00:12;101182.13;;;9.24;100.00
56876;BME280;42622;49.972;8.452;2022-10-17T06:02:38;101195.31;;;9.24;100.00
56876;BME280;42622;49.972;8.452;2022-10-17T06:05:04;101194.38;;;9.25;100.00
56876;BME280;42622;49.972;8.452;2022-10-17T06:07:30;101207.56;;;9.25;100.00
56876;BME280;42622;49.972;8.452;2022-10-17T06:10:00;101207.56;;;9.25;100.00
56876;BME280;42622;49.972;8.452;2022-10-17T06:12:26;101200.53;;;9.26;100.00
56876;BME280;42622;49.972;8.452;2022-10-17T06:14:54;101208.25;;;9.29;100.00
56876;BME280;42622;49.972;8.452;2022-10-17T06:17:23;101203.91;;;9.28;100.00
56876;BME280;42622;49.972;8.452;2022-10-17T06:19:50;101213.25;;;9.35;100.00
56876;BME280;42622;49.972;8.452;2022-10-17T06:22:19;101206.81;;;9.41;100.00
56876;BME280;42622;49.972;8.452;2022-10-17T06:24:57;101210.91;;;9.46;100.00
56876;BME280;42622;49.972;8.452;2022-10-17T06:27:23;101211.41;;;9.54;100.00
56876;BME280;42622;49.972;8.452;2022-10-17T06:29:49;101197.94;;;9.59;100.00
56876;BME280;42622;49.972;8.452;2022-10-17T06:32:15;101211.75;;;9.64;100.00
56876;BME280;42622;49.972;8.452;2022-10-17T06:34:44;101207.16;;;9.68;100.00
56876;BME280;42622;49.972;8.452;2022-10-17T06:37:13;101214.09;;;9.70;100.00
56876;BME280;42622;49.972;8.452;2022-10-17T06:39:39;101212.28;;;9.71;100.00
56876;BME280;42622;49.972;8.452;2022-10-17T06:42:06;101221.94;;;9.72;100.00
56876;BME280;42622;49.972;8.452;2022-10-17T06:44:31;101219.13;;;9.75;100.00
56876;BME280;42622;49.972;8.452;2022-10-17T06:47:01;101224.34;;;9.76;100.00
56876;BME280;42622;49.972;8.452;2022-10-17T06:49:28;101228.63;;;9.79;100.00
56876;BME280;42622;49.972;8.452;2022-10-17T06:51:55;101226.56;;;9.84;100.00
56876;BME280;42622;49.972;8.452;2022-10-17T06:54:20;101232.56;;;9.88;100.00
56876;BME280;42622;49.972;8.452;2022-10-17T06:56:49;101235.03;;;9.91;100.00
56876;BME280;42622;49.972;8.452;2022-10-17T06:59:18;101229.50;;;9.95;100.00
56876;BME280;42622;49.972;8.452;2022-10-17T07:01:44;101230.88;;;10.02;100.00
56876;BME280;42622;49.972;8.452;2022-10-17T07:04:10;101235.06;;;10.06;100.00
56876;BME280;42622;49.972;8.452;2022-10-17T07:06:36;101245.06;;;10.17;100.00
56876;BME280;42622;49.972;8.452;2022-10-17T07:09:04;101245.59;;;10.24;100.00
56876;BME280;42622;49.972;8.452;2022-10-17T07:11:40;101252.31;;;10.31;100.00
56876;BME280;42622;49.972;8.452;2022-10-17T07:14:14;101248.22;;;10.41;100.00
56876;BME280;42622;49.972;8.452;2022-10-17T07:16:40;101249.28;;;10.55;100.00
56876;BME280;42622;49.972;8.452;2022-10-17T07:19:05;101255.69;;;10.66;100.00
56876;BME280;42622;49.972;8.452;2022-10-17T07:21:31;101256.63;;;10.81;100.00
56876;BME280;42622;49.972;8.452;2022-10-17T07:23:58;101268.56;;;11.04;100.00
56876;BME280;42622;49.972;8.452;2022-10-17T07:26:27;101261.47;;;11.20;100.00
56876;BME280;42622;49.972;8.452;2022-10-17T07:28:54;101257.78;;;11.39;100.00
56876;BME280;42622;49.972;8.452;2022-10-17T07:31:22;101261.56;;;11.79;100.00
56876;BME280;42622;49.972;8.452;2022-10-17T07:33:49;101255.31;;;12.39;100.00
56876;BME280;42622;49.972;8.452;2022-10-17T07:36:17;101254.56;;;12.92;100.00
56876;BME280;42622;49.972;8.452;2022-10-17T07:38:47;101259.38;;;13.42;100.00
56876;BME280;42622;49.972;8.452;2022-10-17T07:41:12;101262.44;;;13.75;100.00
56876;BME280;42622;49.972;8.452;2022-10-17T07:43:38;101265.53;;;14.07;100.00
56876;BME280;42622;49.972;8.452;2022-10-17T07:46:06;101264.47;;;14.35;100.00
56876;BME280;42622;49.972;8.452;2022-10-17T07:48:33;101264.25;;;14.64;100.00
56876;BME280;42622;49.972;8.452;2022-10-17T07:51:08;101271.09;;;14.92;100.00
56876;BME280;42622;49.972;8.452;2022-10-17T07:53:37;101271.34;;;15.13;100.00
56876;BME280;42622;49.972;8.452;2022-10-17T07:56:32;101272.81;;;15.41;100.00
56876;BME280;42622;49.972;8.452;2022-10-17T07:58:58;101273.56;;;15.54;100.00
56876;BME280;42622;49.972;8.452;2022-10-17T08:01:27;101267.22;;;15.68;100.00
56876;BME280;42622;49.972;8.452;2022-10-17T08:03:53;101266.06;;;15.84;100.00
56876;BME280;42622;49.972;8.452;2022-10-17T08:06:18;101277.25;;;16.00;100.00
56876;BME280;42622;49.972;8.452;2022-10-17T08:08:47;101276.53;;;16.09;100.00
56876;BME280;42622;49.972;8.452;2022-10-17T08:11:15;101272.91;;;16.21;100.00
56876;BME280;42622;49.972;8.452;2022-10-17T08:13:41;101275.34;;;16.36;100.00
56876;BME280;42622;49.972;8.452;2022-10-17T08:16:11;101272.19;;;16.42;100.00
56876;BME280;42622;49.972;8.452;2022-10-17T08:18:40;101271.13;;;16.33;100.00
56876;BME280;42622;49.972;8.452;2022-10-17T08:21:06;101275.09;;;16.28;100.00
56876;BME280;42622;49.972;8.452;2022-10-17T08:23:33;101285.16;;;16.24;100.00
56876;BME280;42622;49.972;8.452;2022-10-17T08:26:01;101290.66;;;16.34;100.00
56876;BME280;42622;49.972;8.452;2022-10-17T08:28:28;101283.38;;;16.47;100.00
56876;BME280;42622;49.972;8.452;2022-10-17T08:31:11;101280.69;;;16.58;100.00
56876;BME280;42622;49.972;8.452;2022-10-17T08:33:38;101293.56;;;16.64;100.00
56876;BME280;42622;49.972;8.452;2022-10-17T08:36:05;101299.16;;;16.61;100.00
56876;BME280;42622;49.972;8.452;2022-10-17T08:38:34;101280.56;;;16.60;100.00
56876;BME280;42622;49.972;8.452;2022-10-17T08:41:09;101283.25;;;16.60;100.00
56876;BME280;42622;49.972;8.452;2022-10-17T08:47:09;101290.41;;;16.48;100.00
56876;BME280;42622;49.972;8.452;2022-10-17T08:49:55;101284.94;;;16.49;100.00
56876;BME280;42622;49.972;8.452;2022-10-17T08:58:34;101284.22;;;16.81;100.00
56876;BME280;42622;49.972;8.452;2022-10-17T09:01:49;101281.66;;;16.91;100.00
56876;BME280;42622;49.972;8.452;2022-10-17T09:10:48;101285.03;;;17.04;100.00
56876;BME280;42622;49.972;8.452;2022-10-17T09:19:39;101295.91;;;17.24;100.00
56876;BME280;42622;49.972;8.452;2022-10-17T09:22:20;101302.31;;;17.43;100.00
56876;BME280;42622;49.972;8.452;2022-10-17T09:25:03;101300.75;;;17.62;100.00
56876;BME280;42622;49.972;8.452;2022-10-17T09:27:51;101305.34;;;17.71;100.00
56876;BME280;42622;49.972;8.452;2022-10-17T09:30:35;101297.19;;;17.73;100.00
56876;BME280;42622;49.972;8.452;2022-10-17T09:35:41;101298.47;;;18.10;100.00
56876;BME280;42622;49.972;8.452;2022-10-17T09:38:22;101308.31;;;18.31;100.00
56876;BME280;42622;49.972;8.452;2022-10-17T09:41:00;101305.09;;;18.37;100.00
56876;BME280;42622;49.972;8.452;2022-10-17T09:43:27;101302.03;;;18.42;100.00
56876;BME280;42622;49.972;8.452;2022-10-17T09:46:15;101299.25;;;18.53;100.00
56876;BME280;42622;49.972;8.452;2022-10-17T09:49:05;101301.44;;;18.69;100.00
56876;BME280;42622;49.972;8.452;2022-10-17T09:51:37;101311.38;;;18.78;100.00
56876;BME280;42622;49.972;8.452;2022-10-17T09:54:35;101317.78;;;18.96;100.00
56876;BME280;42622;49.972;8.452;2022-10-17T09:57:09;101313.16;;;19.18;100.00
56876;BME280;42622;49.972;8.452;2022-10-17T09:59:44;101321.53;;;19.34;100.00
56876;BME280;42622;49.972;8.452;2022-10-17T10:02:24;101317.44;;;19.49;100.00
56876;BME280;42622;49.972;8.452;2022-10-17T10:05:19;101322.28;;;19.65;100.00
56876;BME280;42622;49.972;8.452;2022-10-17T10:08:15;101326.06;;;19.82;100.00
56876;BME280;42622;49.972;8.452;2022-10-17T10:10:42;101321.13;;;20.06;100.00
56876;BME280;42622;49.972;8.452;2022-10-17T10:15:48;101323.88;;;20.44;100.00
56876;BME280;42622;49.972;8.452;2022-10-17T10:21:21;101321.81;;;20.75;99.03
56876;BME280;42622;49.972;8.452;2022-10-17T10:26:47;101333.44;;;20.66;94.66
56876;BME280;42622;49.972;8.452;2022-10-17T10:29:35;101331.31;;;20.60;94.31
56876;BME280;42622;49.972;8.452;2022-10-17T10:32:32;101344.53;;;20.53;92.62
56876;BME280;42622;49.972;8.452;2022-10-17T10:35:33;101338.69;;;20.58;92.12
56876;BME280;42622;49.972;8.452;2022-10-17T10:38:12;101328.75;;;20.68;91.30
56876;BME280;42622;49.972;8.452;2022-10-17T10:41:03;101335.72;;;20.88;89.50
56876;BME280;42622;49.972;8.452;2022-10-17T10:43:45;101321.19;;;21.09;87.11
56876;BME280;42622;49.972;8.452;2022-10-17T10:46:27;101318.69;;;21.25;83.77
56876;BME280;42622;49.972;8.452;2022-10-17T10:48:59;101327.66;;;21.43;83.24
56876;BME280;42622;49.972;8.452;2022-10-17T10:51:47;101329.97;;;21.74;82.70
56876;BME280;42622;49.972;8.452;2022-10-17T10:54:38;101329.47;;;21.96;80.40
56876;BME280;42622;49.972;8.452;2022-10-17T10:57:16;101324.22;;;22.13;79.19
56876;BME280;42622;49.972;8.452;2022-10-17T10:59:57;101330.91;;;22.27;77.68
56876;BME280;42622;49.972;8.452;2022-10-17T11:03:55;101330.47;;;22.39;76.53
56876;BME280;42622;49.972;8.452;2022-10-17T11:06:03;101332.88;;;22.51;75.35
56876;BME280;42622;49.972;8.452;2022-10-17T11:08:53;101336.81;;;22.56;74.70
56876;BME280;42622;49.972;8.452;2022-10-17T11:11:44;101339.00;;;22.61;73.87
56876;BME280;42622;49.972;8.452;2022-10-17T11:14:37;101337.00;;;22.63;73.00
56876;BME280;42622;49.972;8.452;2022-10-17T11:23:01;101327.00;;;23.32;70.01
56876;BME280;42622;49.972;8.452;2022-10-17T11:25:40;101318.63;;;23.43;67.61
56876;BME280;42622;49.972;8.452;2022-10-17T11:28:22;101325.19;;;23.41;68.28
56876;BME280;42622;49.972;8.452;2022-10-17T11:31:02;101326.84;;;23.42;67.77
56876;BME280;42622;49.972;8.452;2022-10-17T11:36:05;101335.97;;;23.41;67.59
56876;BME280;42622;49.972;8.452;2022-10-17T11:38:49;101338.03;;;23.55;67.27
56876;BME280;42622;49.972;8.452;2022-10-17T11:42:03;101345.94;;;23.56;65.80
56876;BME280;42622;49.972;8.452;2022-10-17T11:44:41;101347.28;;;23.52;64.93
56876;BME280;42622;49.972;8.452;2022-10-17T11:50:22;101343.06;;;23.50;64.43
56876;BME280;42622;49.972;8.452;2022-10-17T11:55:37;101335.00;;;23.66;64.43
56876;BME280;42622;49.972;8.452;2022-10-17T11:58:46;101339.22;;;24.09;64.40
56876;BME280;42622;49.972;8.452;2022-10-17T12:01:34;101336.41;;;24.03;63.00
56876;BME280;42622;49.972;8.452;2022-10-17T12:07:28;101324.19;;;23.58;63.60
56876;BME280;42622;49.972;8.452;2022-10-17T12:12:48;101320.81;;;23.48;64.36
56876;BME280;42622;49.972;8.452;2022-10-17T12:18:15;101322.22;;;23.93;62.54
56876;BME280;42622;49.972;8.452;2022-10-17T12:20:41;101334.84;;;24.25;62.13
56876;BME280;42622;49.972;8.452;2022-10-17T12:25:55;101334.31;;;24.93;59.82
56876;BME280;42622;49.972;8.452;2022-10-17T12:28:46;101330.00;;;25.69;57.44
56876;BME280;42622;49.972;8.452;2022-10-17T12:31:25;101325.88;;;26.19;55.90
56876;BME280;42622;49.972;8.452;2022-10-17T12:33:55;101336.34;;;26.22;55.30
56876;BME280;42622;49.972;8.452;2022-10-17T12:47:43;101333.78;;;24.98;58.51
56876;BME280;42622;49.972;8.452;2022-10-17T12:49:49;101329.47;;;24.80;59.31
56876;BME280;42622;49.972;8.452;2022-10-17T12:57:54;101335.00;;;24.31;60.72
56876;BME280;42622;49.972;8.452;2022-10-17T13:03:20;101321.97;;;24.99;59.86
56876;BME280;42622;49.972;8.452;2022-10-17T13:06:02;101317.19;;;25.09;59.68
56876;BME280;42622;49.972;8.452;2022-10-17T13:08:36;101316.06;;;24.95;60.49
56876;BME280;42622;49.972;8.452;2022-10-17T13:11:06;101317.78;;;24.88;60.93
56876;BME280;42622;49.972;8.452;2022-10-17T13:13:41;101326.16;;;24.62;60.69
56876;BME280;42622;49.972;8.452;2022-10-17T13:16:34;101327.91;;;24.47;60.99
56876;BME280;42622;49.972;8.452;2022-10-17T13:19:13;101318.75;;;24.48;60.97
56876;BME280;42622;49.972;8.452;2022-10-17T13:22:16;101330.91;;;24.60;60.98
56876;BME280;42622;49.972;8.452;2022-10-17T13:24:43;101336.09;;;24.70;61.09
56876;BME280;42622;49.972;8.452;2022-10-17T13:27:33;101328.22;;;24.60;60.48
56876;BME280;42622;49.972;8.452;2022-10-17T13:32:47;101337.34;;;24.51;61.25
56876;BME280;42622;49.972;8.452;2022-10-17T13:35:27;101329.72;;;24.54;60.90
56876;BME280;42622;49.972;8.452;2022-10-17T13:37:55;101330.94;;;24.36;59.36
56876;BME280;42622;49.972;8.452;2022-10-17T13:40:27;101334.69;;;24.18;59.14
56876;BME280;42622;49.972;8.452;2022-10-17T13:42:58;101344.63;;;24.09;59.42
56876;BME280;42622;49.972;8.452;2022-10-17T13:45:33;101345.66;;;23.92;59.70
56876;BME280;42622;49.972;8.452;2022-10-17T13:48:18;101345.50;;;23.69;59.96
56876;BME280;42622;49.972;8.452;2022-10-17T13:50:53;101343.25;;;23.48;61.04
56876;BME280;42622;49.972;8.452;2022-10-17T13:53:40;101340.34;;;23.33;61.52
56876;BME280;42622;49.972;8.452;2022-10-17T13:56:26;101342.00;;;23.18;61.66
56876;BME280;42622;49.972;8.452;2022-10-17T13:58:59;101336.22;;;23.05;62.14
56876;BME280;42622;49.972;8.452;2022-10-17T14:01:28;101338.88;;;22.97;62.32
56876;BME280;42622;49.972;8.452;2022-10-17T14:03:55;101344.59;;;22.94;62.89
56876;BME280;42622;49.972;8.452;2022-10-17T14:06:28;101349.44;;;22.90;63.03
56876;BME280;42622;49.972;8.452;2022-10-17T14:09:22;101350.22;;;22.82;63.22
56876;BME280;42622;49.972;8.452;2022-10-17T14:12:09;101353.91;;;22.73;63.64
56876;BME280;42622;49.972;8.452;2022-10-17T14:14:40;101352.88;;;22.66;63.71
56876;BME280;42622;49.972;8.452;2022-10-17T14:17:24;101351.81;;;22.59;64.15
56876;BME280;42622;49.972;8.452;2022-10-17T14:19:58;101350.59;;;22.53;64.51
56876;BME280;42622;49.972;8.452;2022-10-17T14:22:35;101348.00;;;22.43;64.88
56876;BME280;42622;49.972;8.452;2022-10-17T14:25:03;101345.56;;;22.32;65.12
56876;BME280;42622;49.972;8.452;2022-10-17T14:33:29;101351.09;;;22.23;65.79
56876;BME280;42622;49.972;8.452;2022-10-17T14:36:01;101355.59;;;22.22;66.01
56876;BME280;42622;49.972;8.452;2022-10-17T14:38:31;101357.63;;;22.20;66.40
56876;BME280;42622;49.972;8.452;2022-10-17T14:41:25;101357.94;;;22.17;66.57
56876;BME280;42622;49.972;8.452;2022-10-17T14:44:04;101360.63;;;22.17;66.58
56876;BME280;42622;49.972;8.452;2022-10-17T14:46:35;101363.38;;;22.07;66.82
56876;BME280;42622;49.972;8.452;2022-10-17T14:49:32;101366.25;;;22.06;66.84
56876;BME280;42622;49.972;8.452;2022-10-17T14:54:44;101375.22;;;21.96;67.54
56876;BME280;42622;49.972;8.452;2022-10-17T14:57:27;101370.31;;;21.92;67.84
56876;BME280;42622;49.972;8.452;2022-10-17T14:59:55;101372.84;;;21.93;68.05
56876;BME280;42622;49.972;8.452;2022-10-17T15:02:28;101374.69;;;21.93;68.12
56876;BME280;42622;49.972;8.452;2022-10-17T15:04:54;101386.63;;;21.90;68.40
56876;BME280;42622;49.972;8.452;2022-10-17T15:07:21;101394.38;;;21.93;68.31
56876;BME280;42622;49.972;8.452;2022-10-17T15:09:52;101391.03;;;21.91;68.55
56876;BME280;42622;49.972;8.452;2022-10-17T15:12:23;101399.53;;;21.87;68.87
56876;BME280;42622;49.972;8.452;2022-10-17T15:14:51;101398.69;;;21.86;69.14